sensor_id;sensor_type;location;lat;lon;timestamp;temperature;humidity
31967;DHT22;18496;52.042;6.812;2022-11-18T00:00:14;11.00;99.90
31967;DHT22;18496;52.042;6.812;2022-11-18T00:02:18;11.00;99.90
31967;DHT22;18496;52.042;6.812;2022-11-18T00:04:21;11.00;99.90
31967;DHT22;18496;52.042;6.812;2022-11-18T00:06:27;11.00;99.90
31967;DHT22;18496;52.042;6.812;2022-11-18T00:08:31;11.00;99.90
31967;DHT22;18496;52.042;6.812;2022-11-18T00:10:38;11.00;99.90
31967;DHT22;18496;52.042;6.812;2022-11-18T00:12:41;11.00;99.90
31967;DHT22;18496;52.042;6.812;2022-11-18T00:15:04;11.00;99.90
31967;DHT22;18496;52.042;6.812;2022-11-18T00:17:08;11.00;99.90
31967;DHT22;18496;52.042;6.812;2022-11-18T00:19:11;11.00;99.90
31967;DHT22;18496;52.042;6.812;2022-11-18T00:21:15;11.00;99.90
31967;DHT22;18496;52.042;6.812;2022-11-18T00:23:19;11.00;99.90
31967;DHT22;18496;52.042;6.812;2022-11-18T00:25:22;11.00;99.90
31967;DHT22;18496;52.042;6.812;2022-11-18T00:27:29;11.10;99.90
31967;DHT22;18496;52.042;6.812;2022-11-18T00:29:33;11.00;99.90
31967;DHT22;18496;52.042;6.812;2022-11-18T00:31:37;11.10;99.90
31967;DHT22;18496;52.042;6.812;2022-11-18T00:33:41;11.10;99.90
31967;DHT22;18496;52.042;6.812;2022-11-18T00:35:52;11.10;99.90
31967;DHT22;18496;52.042;6.812;2022-11-18T00:37:56;11.10;99.90
31967;DHT22;18496;52.042;6.812;2022-11-18T00:39:59;11.10;99.90
31967;DHT22;18496;52.042;6.812;2022-11-18T00:42:03;11.10;99.90
31967;DHT22;18496;52.042;6.812;2022-11-18T00:44:25;11.10;99.90
31967;DHT22;18496;52.042;6.812;2022-11-18T00:46:29;11.10;99.90
31967;DHT22;18496;52.042;6.812;2022-11-18T00:48:32;11.00;99.90
31967;DHT22;18496;52.042;6.812;2022-11-18T00:50:36;11.00;99.90
31967;DHT22;18496;52.042;6.812;2022-11-18T00:52:40;11.00;99.90
31967;DHT22;18496;52.042;6.812;2022-11-18T00:54:43;11.00;99.90
31967;DHT22;18496;52.042;6.812;2022-11-18T00:56:47;11.00;99.90
31967;DHT22;18496;52.042;6.812;2022-11-18T00:58:50;11.00;99.90
31967;DHT22;18496;52.042;6.812;2022-11-18T01:00:54;11.00;99.90
31967;DHT22;18496;52.042;6.812;2022-11-18T01:02:58;11.00;99.90
31967;DHT22;18496;52.042;6.812;2022-11-18T01:05:01;11.00;99.90
31967;DHT22;18496;52.042;6.812;2022-11-18T01:07:05;11.00;99.90
31967;DHT22;18496;52.042;6.812;2022-11-18T01:09:09;10.90;99.90
31967;DHT22;18496;52.042;6.812;2022-11-18T01:11:12;11.00;99.90
31967;DHT22;18496;52.042;6.812;2022-11-18T01:13:34;11.00;99.90
31967;DHT22;18496;52.042;6.812;2022-11-18T01:15:42;11.00;99.90
31967;DHT22;18496;52.042;6.812;2022-11-18T01:17:46;11.00;99.90
31967;DHT22;18496;52.042;6.812;2022-11-18T01:19:50;11.00;99.90
31967;DHT22;18496;52.042;6.812;2022-11-18T01:21:56;11.00;99.90
31967;DHT22;18496;52.042;6.812;2022-11-18T01:24:05;11.00;99.90
31967;DHT22;18496;52.042;6.812;2022-11-18T01:26:11;11.00;99.90
31967;DHT22;18496;52.042;6.812;2022-11-18T01:28:17;11.00;99.90
31967;DHT22;18496;52.042;6.812;2022-11-18T01:30:21;11.00;99.90
31967;DHT22;18496;52.042;6.812;2022-11-18T01:32:27;11.00;99.90
31967;DHT22;18496;52.042;6.812;2022-11-18T01:34:30;11.00;99.90
31967;DHT22;18496;52.042;6.812;2022-11-18T01:36:34;11.10;99.90
31967;DHT22;18496;52.042;6.812;2022-11-18T01:38:38;11.00;99.90
31967;DHT22;18496;52.042;6.812;2022-11-18T01:40:41;11.00;99.90
31967;DHT22;18496;52.042;6.812;2022-11-18T01:42:45;11.10;99.90
31967;DHT22;18496;52.042;6.812;2022-11-18T01:45:02;11.10;99.90
31967;DHT22;18496;52.042;6.812;2022-11-18T01:47:07;11.10;99.90
31967;DHT22;18496;52.042;6.812;2022-11-18T01:49:13;11.00;99.90
31967;DHT22;18496;52.042;6.812;2022-11-18T01:51:22;11.10;99.90
31967;DHT22;18496;52.042;6.812;2022-11-18T01:53:33;11.10;99.90
31967;DHT22;18496;52.042;6.812;2022-11-18T01:55:40;11.10;99.90
31967;DHT22;18496;52.042;6.812;2022-11-18T01:57:48;11.10;99.90
31967;DHT22;18496;52.042;6.812;2022-11-18T01:59:56;11.10;99.90
31967;DHT22;18496;52.042;6.812;2022-11-18T02:02:04;11.10;99.90
31967;DHT22;18496;52.042;6.812;2022-11-18T02:04:08;11.10;99.90
31967;DHT22;18496;52.042;6.812;2022-11-18T02:06:12;11.10;99.90
31967;DHT22;18496;52.042;6.812;2022-11-18T02:08:17;11.10;99.90
31967;DHT22;18496;52.042;6.812;2022-11-18T02:10:22;11.20;99.90
31967;DHT22;18496;52.042;6.812;2022-11-18T02:12:27;11.20;99.90
31967;DHT22;18496;52.042;6.812;2022-11-18T02:14:37;11.20;99.90
31967;DHT22;18496;52.042;6.812;2022-11-18T02:27:21;11.20;99.90
31967;DHT22;18496;52.042;6.812;2022-11-18T02:29:30;11.10;99.90
31967;DHT22;18496;52.042;6.812;2022-11-18T02:31:50;11.20;99.90
31967;DHT22;18496;52.042;6.812;2022-11-18T02:34:06;11.10;99.90
31967;DHT22;18496;52.042;6.812;2022-11-18T02:36:19;11.20;99.90
31967;DHT22;18496;52.042;6.812;2022-11-18T02:38:34;11.20;99.90
31967;DHT22;18496;52.042;6.812;2022-11-18T02:40:49;11.20;99.90
31967;DHT22;18496;52.042;6.812;2022-11-18T02:43:07;11.10;99.90
31967;DHT22;18496;52.042;6.812;2022-11-18T02:45:16;11.20;99.90
31967;DHT22;18496;52.042;6.812;2022-11-18T02:47:20;11.20;99.90
31967;DHT22;18496;52.042;6.812;2022-11-18T02:49:46;11.10;99.90
31967;DHT22;18496;52.042;6.812;2022-11-18T02:51:50;11.20;99.90
31967;DHT22;18496;52.042;6.812;2022-11-18T02:53:58;11.20;99.90
31967;DHT22;18496;52.042;6.812;2022-11-18T02:56:04;11.20;99.90
31967;DHT22;18496;52.042;6.812;2022-11-18T02:58:09;11.20;99.90
31967;DHT22;18496;52.042;6.812;2022-11-18T03:00:14;11.20;99.90
31967;DHT22;18496;52.042;6.812;2022-11-18T03:02:19;11.20;99.90
31967;DHT22;18496;52.042;6.812;2022-11-18T03:04:24;11.20;99.90
31967;DHT22;18496;52.042;6.812;2022-11-18T03:06:38;11.20;99.90
31967;DHT22;18496;52.042;6.812;2022-11-18T03:08:49;11.20;99.90
31967;DHT22;18496;52.042;6.812;2022-11-18T03:11:16;11.20;99.90
31967;DHT22;18496;52.042;6.812;2022-11-18T03:13:26;11.20;99.90
31967;DHT22;18496;52.042;6.812;2022-11-18T03:16:10;11.20;99.90
31967;DHT22;18496;52.042;6.812;2022-11-18T03:20:37;11.10;99.90
31967;DHT22;18496;52.042;6.812;2022-11-18T03:23:11;11.10;99.90
31967;DHT22;18496;52.042;6.812;2022-11-18T03:27:53;11.10;99.90
31967;DHT22;18496;52.042;6.812;2022-11-18T03:30:04;11.00;99.90
31967;DHT22;18496;52.042;6.812;2022-11-18T03:32:12;11.00;99.90
31967;DHT22;18496;52.042;6.812;2022-11-18T03:36:37;11.00;99.90
31967;DHT22;18496;52.042;6.812;2022-11-18T03:38:51;11.00;99.90
31967;DHT22;18496;52.042;6.812;2022-11-18T03:40:59;11.00;99.90
31967;DHT22;18496;52.042;6.812;2022-11-18T03:43:20;10.90;99.90
31967;DHT22;18496;52.042;6.812;2022-11-18T03:45:35;11.00;99.90
31967;DHT22;18496;52.042;6.812;2022-11-18T03:47:44;11.00;99.90
31967;DHT22;18496;52.042;6.812;2022-11-18T03:49:53;11.00;99.90
31967;DHT22;18496;52.042;6.812;2022-11-18T03:52:06;11.00;99.90
31967;DHT22;18496;52.042;6.812;2022-11-18T03:54:29;11.00;99.90
31967;DHT22;18496;52.042;6.812;2022-11-18T03:56:37;11.00;99.90
31967;DHT22;18496;52.042;6.812;2022-11-18T04:00:57;11.00;99.90
31967;DHT22;18496;52.042;6.812;2022-11-18T04:03:03;11.00;99.90
31967;DHT22;18496;52.042;6.812;2022-11-18T04:05:09;11.00;99.90
31967;DHT22;18496;52.042;6.812;2022-11-18T04:07:30;11.00;99.90
31967;DHT22;18496;52.042;6.812;2022-11-18T04:09:46;11.10;99.90
31967;DHT22;18496;52.042;6.812;2022-11-18T04:11:59;11.10;99.90
31967;DHT22;18496;52.042;6.812;2022-11-18T04:14:08;11.10;99.90
31967;DHT22;18496;52.042;6.812;2022-11-18T04:16:12;11.10;99.90
31967;DHT22;18496;52.042;6.812;2022-11-18T04:18:16;11.10;99.90
31967;DHT22;18496;52.042;6.812;2022-11-18T04:20:20;11.10;99.90
31967;DHT22;18496;52.042;6.812;2022-11-18T04:22:24;11.10;99.90
31967;DHT22;18496;52.042;6.812;2022-11-18T04:24:28;11.10;99.90
31967;DHT22;18496;52.042;6.812;2022-11-18T04:26:31;11.10;99.90
31967;DHT22;18496;52.042;6.812;2022-11-18T04:28:35;11.10;99.90
31967;DHT22;18496;52.042;6.812;2022-11-18T04:30:39;11.10;99.90
31967;DHT22;18496;52.042;6.812;2022-11-18T04:32:42;11.10;99.90
31967;DHT22;18496;52.042;6.812;2022-11-18T04:34:46;11.10;99.90
31967;DHT22;18496;52.042;6.812;2022-11-18T04:36:49;11.10;99.90
31967;DHT22;18496;52.042;6.812;2022-11-18T04:38:53;11.10;99.90
31967;DHT22;18496;52.042;6.812;2022-11-18T04:40:57;11.10;99.90
31967;DHT22;18496;52.042;6.812;2022-11-18T04:43:00;11.10;99.90
31967;DHT22;18496;52.042;6.812;2022-11-18T04:45:05;11.10;99.90
31967;DHT22;18496;52.042;6.812;2022-11-18T04:47:08;11.10;99.90
31967;DHT22;18496;52.042;6.812;2022-11-18T04:49:13;11.10;99.90
31967;DHT22;18496;52.042;6.812;2022-11-18T04:51:17;11.10;99.90
31967;DHT22;18496;52.042;6.812;2022-11-18T04:53:20;11.10;99.90
31967;DHT22;18496;52.042;6.812;2022-11-18T04:55:24;11.10;99.90
31967;DHT22;18496;52.042;6.812;2022-11-18T04:57:29;11.10;99.90
31967;DHT22;18496;52.042;6.812;2022-11-18T04:59:33;11.10;99.90
31967;DHT22;18496;52.042;6.812;2022-11-18T05:01:37;11.10;99.90
31967;DHT22;18496;52.042;6.812;2022-11-18T05:03:40;11.00;99.90
31967;DHT22;18496;52.042;6.812;2022-11-18T05:05:44;11.10;99.90
31967;DHT22;18496;52.042;6.812;2022-11-18T05:07:47;11.10;99.90
31967;DHT22;18496;52.042;6.812;2022-11-18T05:09:51;11.10;99.90
31967;DHT22;18496;52.042;6.812;2022-11-18T05:11:55;11.10;99.90
31967;DHT22;18496;52.042;6.812;2022-11-18T05:14:17;11.10;99.90
31967;DHT22;18496;52.042;6.812;2022-11-18T05:16:20;11.10;99.90
31967;DHT22;18496;52.042;6.812;2022-11-18T05:18:24;11.10;99.90
31967;DHT22;18496;52.042;6.812;2022-11-18T05:20:28;11.20;99.90
31967;DHT22;18496;52.042;6.812;2022-11-18T05:22:37;11.20;99.90
31967;DHT22;18496;52.042;6.812;2022-11-18T05:24:41;11.20;99.90
31967;DHT22;18496;52.042;6.812;2022-11-18T05:26:45;11.20;99.90
31967;DHT22;18496;52.042;6.812;2022-11-18T05:28:48;11.20;99.90
31967;DHT22;18496;52.042;6.812;2022-11-18T05:30:55;11.20;99.90
31967;DHT22;18496;52.042;6.812;2022-11-18T05:32:59;11.20;99.90
31967;DHT22;18496;52.042;6.812;2022-11-18T05:35:02;11.20;99.90
31967;DHT22;18496;52.042;6.812;2022-11-18T05:37:09;11.20;99.90
31967;DHT22;18496;52.042;6.812;2022-11-18T05:39:13;11.20;99.90
31967;DHT22;18496;52.042;6.812;2022-11-18T05:41:17;11.20;99.90
31967;DHT22;18496;52.042;6.812;2022-11-18T05:43:47;11.20;99.90
31967;DHT22;18496;52.042;6.812;2022-11-18T05:45:51;11.20;99.90
31967;DHT22;18496;52.042;6.812;2022-11-18T05:47:56;11.20;99.90
31967;DHT22;18496;52.042;6.812;2022-11-18T05:50:03;11.20;99.90
31967;DHT22;18496;52.042;6.812;2022-11-18T05:52:06;11.20;99.90
31967;DHT22;18496;52.042;6.812;2022-11-18T05:54:10;11.20;99.90
31967;DHT22;18496;52.042;6.812;2022-11-18T05:58:36;11.20;99.90
31967;DHT22;18496;52.042;6.812;2022-11-18T06:00:40;11.20;99.90
31967;DHT22;18496;52.042;6.812;2022-11-18T06:02:46;11.20;99.90
31967;DHT22;18496;52.042;6.812;2022-11-18T06:05:00;11.20;99.90
31967;DHT22;18496;52.042;6.812;2022-11-18T06:07:16;11.30;99.90
31967;DHT22;18496;52.042;6.812;2022-11-18T06:09:24;11.20;99.90
31967;DHT22;18496;52.042;6.812;2022-11-18T06:11:30;11.20;99.90
31967;DHT22;18496;52.042;6.812;2022-11-18T06:14:02;11.20;99.90
31967;DHT22;18496;52.042;6.812;2022-11-18T06:16:05;11.20;99.90
31967;DHT22;18496;52.042;6.812;2022-11-18T06:18:25;11.20;99.90
31967;DHT22;18496;52.042;6.812;2022-11-18T06:20:30;11.20;99.90
31967;DHT22;18496;52.042;6.812;2022-11-18T06:22:36;11.20;99.90
31967;DHT22;18496;52.042;6.812;2022-11-18T06:24:41;11.20;99.90
31967;DHT22;18496;52.042;6.812;2022-11-18T06:26:45;11.20;99.90
31967;DHT22;18496;52.042;6.812;2022-11-18T06:28:49;11.20;99.90
31967;DHT22;18496;52.042;6.812;2022-11-18T06:30:53;11.20;99.90
31967;DHT22;18496;52.042;6.812;2022-11-18T06:32:57;11.20;99.90
31967;DHT22;18496;52.042;6.812;2022-11-18T06:35:00;11.30;99.90
31967;DHT22;18496;52.042;6.812;2022-11-18T06:37:19;11.30;99.90
31967;DHT22;18496;52.042;6.812;2022-11-18T06:39:23;11.30;99.90
31967;DHT22;18496;52.042;6.812;2022-11-18T06:41:27;11.30;99.90
31967;DHT22;18496;52.042;6.812;2022-11-18T06:43:30;11.20;99.90
31967;DHT22;18496;52.042;6.812;2022-11-18T06:45:46;11.20;99.90
31967;DHT22;18496;52.042;6.812;2022-11-18T06:48:09;11.20;99.90
31967;DHT22;18496;52.042;6.812;2022-11-18T06:50:13;11.10;99.90
31967;DHT22;18496;52.042;6.812;2022-11-18T06:52:17;11.10;99.90
31967;DHT22;18496;52.042;6.812;2022-11-18T06:54:21;11.10;99.90
31967;DHT22;18496;52.042;6.812;2022-11-18T06:56:24;11.10;99.90
31967;DHT22;18496;52.042;6.812;2022-11-18T06:58:28;11.20;99.90
31967;DHT22;18496;52.042;6.812;2022-11-18T07:00:32;11.20;99.90
31967;DHT22;18496;52.042;6.812;2022-11-18T07:02:35;11.20;99.90
31967;DHT22;18496;52.042;6.812;2022-11-18T07:04:39;11.20;99.90
31967;DHT22;18496;52.042;6.812;2022-11-18T07:06:43;11.20;99.90
31967;DHT22;18496;52.042;6.812;2022-11-18T07:08:47;11.20;99.90
31967;DHT22;18496;52.042;6.812;2022-11-18T07:10:52;11.20;99.90
31967;DHT22;18496;52.042;6.812;2022-11-18T07:12:55;11.10;99.90
31967;DHT22;18496;52.042;6.812;2022-11-18T07:14:59;11.20;99.90
31967;DHT22;18496;52.042;6.812;2022-11-18T07:17:03;11.20;99.90
31967;DHT22;18496;52.042;6.812;2022-11-18T07:19:08;11.20;99.90
31967;DHT22;18496;52.042;6.812;2022-11-18T07:23:21;11.20;99.90
31967;DHT22;18496;52.042;6.812;2022-11-18T07:25:24;11.30;99.90
31967;DHT22;18496;52.042;6.812;2022-11-18T07:27:28;11.30;99.90
31967;DHT22;18496;52.042;6.812;2022-11-18T07:29:32;11.30;99.90
31967;DHT22;18496;52.042;6.812;2022-11-18T07:31:36;11.30;99.90
31967;DHT22;18496;52.042;6.812;2022-11-18T07:33:42;11.30;99.90
31967;DHT22;18496;52.042;6.812;2022-11-18T07:35:46;11.30;99.90
31967;DHT22;18496;52.042;6.812;2022-11-18T07:37:50;11.30;99.90
31967;DHT22;18496;52.042;6.812;2022-11-18T07:39:54;11.30;99.90
31967;DHT22;18496;52.042;6.812;2022-11-18T07:41:57;11.30;99.90
31967;DHT22;18496;52.042;6.812;2022-11-18T07:44:02;11.30;99.90
31967;DHT22;18496;52.042;6.812;2022-11-18T07:46:20;11.40;99.90
31967;DHT22;18496;52.042;6.812;2022-11-18T07:48:24;11.40;99.90
31967;DHT22;18496;52.042;6.812;2022-11-18T07:50:27;11.40;99.90
31967;DHT22;18496;52.042;6.812;2022-11-18T07:52:31;11.30;99.90
31967;DHT22;18496;52.042;6.812;2022-11-18T07:54:35;11.30;99.90
31967;DHT22;18496;52.042;6.812;2022-11-18T07:56:38;11.30;99.90
31967;DHT22;18496;52.042;6.812;2022-11-18T07:58:43;11.40;99.90
31967;DHT22;18496;52.042;6.812;2022-11-18T08:00:46;11.30;99.90
31967;DHT22;18496;52.042;6.812;2022-11-18T08:02:50;11.30;99.90
31967;DHT22;18496;52.042;6.812;2022-11-18T08:04:53;11.30;99.90
31967;DHT22;18496;52.042;6.812;2022-11-18T08:06:57;11.30;99.90
31967;DHT22;18496;52.042;6.812;2022-11-18T08:09:02;11.30;99.90
31967;DHT22;18496;52.042;6.812;2022-11-18T08:11:08;11.30;99.90
31967;DHT22;18496;52.042;6.812;2022-11-18T08:13:12;11.30;99.90
31967;DHT22;18496;52.042;6.812;2022-11-18T08:15:16;11.30;99.90
31967;DHT22;18496;52.042;6.812;2022-11-18T08:17:19;11.30;99.90
31967;DHT22;18496;52.042;6.812;2022-11-18T08:19:23;11.30;99.90
31967;DHT22;18496;52.042;6.812;2022-11-18T08:21:27;11.30;99.90
31967;DHT22;18496;52.042;6.812;2022-11-18T08:23:30;11.30;99.90
31967;DHT22;18496;52.042;6.812;2022-11-18T08:25:34;11.30;99.90
31967;DHT22;18496;52.042;6.812;2022-11-18T08:27:38;11.30;99.90
31967;DHT22;18496;52.042;6.812;2022-11-18T08:29:41;11.30;99.90
31967;DHT22;18496;52.042;6.812;2022-11-18T08:31:45;11.40;99.90
31967;DHT22;18496;52.042;6.812;2022-11-18T08:33:56;11.30;99.90
31967;DHT22;18496;52.042;6.812;2022-11-18T08:36:15;11.30;99.90
31967;DHT22;18496;52.042;6.812;2022-11-18T08:38:19;11.30;99.90
31967;DHT22;18496;52.042;6.812;2022-11-18T08:40:22;11.30;99.90
31967;DHT22;18496;52.042;6.812;2022-11-18T08:42:26;11.30;99.90
31967;DHT22;18496;52.042;6.812;2022-11-18T08:44:30;11.30;99.90
31967;DHT22;18496;52.042;6.812;2022-11-18T08:46:40;11.30;99.90
31967;DHT22;18496;52.042;6.812;2022-11-18T08:48:44;11.30;99.90
31967;DHT22;18496;52.042;6.812;2022-11-18T08:50:48;11.20;99.90
31967;DHT22;18496;52.042;6.812;2022-11-18T08:52:51;11.30;99.90
31967;DHT22;18496;52.042;6.812;2022-11-18T08:54:55;11.30;99.90
31967;DHT22;18496;52.042;6.812;2022-11-18T08:56:59;11.30;99.90
31967;DHT22;18496;52.042;6.812;2022-11-18T08:59:03;11.30;99.90
31967;DHT22;18496;52.042;6.812;2022-11-18T09:01:06;11.30;99.90
31967;DHT22;18496;52.042;6.812;2022-11-18T09:03:10;11.40;99.90
31967;DHT22;18496;52.042;6.812;2022-11-18T09:05:17;11.40;99.90
31967;DHT22;18496;52.042;6.812;2022-11-18T09:07:23;11.40;99.90
31967;DHT22;18496;52.042;6.812;2022-11-18T09:09:27;11.40;99.90
31967;DHT22;18496;52.042;6.812;2022-11-18T09:11:51;11.40;99.90
31967;DHT22;18496;52.042;6.812;2022-11-18T09:16:49;11.50;99.90
31967;DHT22;18496;52.042;6.812;2022-11-18T09:19:01;11.50;99.90
31967;DHT22;18496;52.042;6.812;2022-11-18T09:21:28;11.60;99.90
31967;DHT22;18496;52.042;6.812;2022-11-18T09:24:27;11.60;99.90
31967;DHT22;18496;52.042;6.812;2022-11-18T09:26:53;11.60;99.90
31967;DHT22;18496;52.042;6.812;2022-11-18T09:28:56;11.50;99.90
31967;DHT22;18496;52.042;6.812;2022-11-18T09:31:05;11.50;99.90
31967;DHT22;18496;52.042;6.812;2022-11-18T09:33:10;11.60;99.90
31967;DHT22;18496;52.042;6.812;2022-11-18T09:35:13;11.50;99.90
31967;DHT22;18496;52.042;6.812;2022-11-18T09:37:17;11.50;99.90
31967;DHT22;18496;52.042;6.812;2022-11-18T09:39:22;11.50;99.90
31967;DHT22;18496;52.042;6.812;2022-11-18T09:41:46;11.50;99.90
31967;DHT22;18496;52.042;6.812;2022-11-18T09:48:30;11.60;99.90
31967;DHT22;18496;52.042;6.812;2022-11-18T09:50:52;11.60;99.90
31967;DHT22;18496;52.042;6.812;2022-11-18T09:53:20;11.60;99.90
31967;DHT22;18496;52.042;6.812;2022-11-18T09:55:25;11.50;99.90
31967;DHT22;18496;52.042;6.812;2022-11-18T09:57:39;11.50;99.90
31967;DHT22;18496;52.042;6.812;2022-11-18T09:59:43;11.50;99.90
31967;DHT22;18496;52.042;6.812;2022-11-18T10:01:48;11.50;99.90
31967;DHT22;18496;52.042;6.812;2022-11-18T10:03:52;11.60;99.90
31967;DHT22;18496;52.042;6.812;2022-11-18T10:06:02;11.60;99.90
31967;DHT22;18496;52.042;6.812;2022-11-18T10:13:23;11.70;99.90
31967;DHT22;18496;52.042;6.812;2022-11-18T10:15:33;11.70;99.90
31967;DHT22;18496;52.042;6.812;2022-11-18T10:22:49;11.80;99.90
31967;DHT22;18496;52.042;6.812;2022-11-18T10:24:56;11.70;99.90
31967;DHT22;18496;52.042;6.812;2022-11-18T10:27:00;11.70;99.90
31967;DHT22;18496;52.042;6.812;2022-11-18T10:29:06;11.70;99.90
31967;DHT22;18496;52.042;6.812;2022-11-18T10:31:12;11.70;99.90
31967;DHT22;18496;52.042;6.812;2022-11-18T10:33:23;11.70;99.90
31967;DHT22;18496;52.042;6.812;2022-11-18T10:35:33;11.70;99.90
31967;DHT22;18496;52.042;6.812;2022-11-18T10:37:37;11.80;99.90
31967;DHT22;18496;52.042;6.812;2022-11-18T10:39:52;11.80;99.90
31967;DHT22;18496;52.042;6.812;2022-11-18T10:42:03;11.80;99.90
31967;DHT22;18496;52.042;6.812;2022-11-18T10:46:36;11.90;99.90
31967;DHT22;18496;52.042;6.812;2022-11-18T10:48:42;11.90;99.90
31967;DHT22;18496;52.042;6.812;2022-11-18T10:50:48;11.90;99.90
31967;DHT22;18496;52.042;6.812;2022-11-18T10:52:55;11.90;99.90
31967;DHT22;18496;52.042;6.812;2022-11-18T10:57:20;12.00;99.90
31967;DHT22;18496;52.042;6.812;2022-11-18T11:02:00;12.00;99.90
31967;DHT22;18496;52.042;6.812;2022-11-18T11:04:20;12.10;99.90
31967;DHT22;18496;52.042;6.812;2022-11-18T11:08:28;12.10;99.90
31967;DHT22;18496;52.042;6.812;2022-11-18T11:10:32;12.20;99.90
31967;DHT22;18496;52.042;6.812;2022-11-18T11:12:41;12.30;99.90
31967;DHT22;18496;52.042;6.812;2022-11-18T11:14:55;12.30;99.90
31967;DHT22;18496;52.042;6.812;2022-11-18T11:19:03;12.30;99.90
31967;DHT22;18496;52.042;6.812;2022-11-18T11:21:14;12.30;99.90
31967;DHT22;18496;52.042;6.812;2022-11-18T11:23:18;12.30;99.90
31967;DHT22;18496;52.042;6.812;2022-11-18T11:25:40;12.40;99.90
31967;DHT22;18496;52.042;6.812;2022-11-18T11:27:52;12.50;99.90
31967;DHT22;18496;52.042;6.812;2022-11-18T11:39:57;12.60;99.90
31967;DHT22;18496;52.042;6.812;2022-11-18T11:44:40;12.70;99.90
31967;DHT22;18496;52.042;6.812;2022-11-18T11:49:37;12.70;99.90
31967;DHT22;18496;52.042;6.812;2022-11-18T11:51:52;12.70;99.90
31967;DHT22;18496;52.042;6.812;2022-11-18T11:56:45;12.70;99.90
31967;DHT22;18496;52.042;6.812;2022-11-18T12:03:45;12.60;99.90
31967;DHT22;18496;52.042;6.812;2022-11-18T12:05:50;12.70;99.90
31967;DHT22;18496;52.042;6.812;2022-11-18T12:08:02;12.70;99.90
31967;DHT22;18496;52.042;6.812;2022-11-18T12:12:49;12.70;99.90
31967;DHT22;18496;52.042;6.812;2022-11-18T12:14:59;12.70;99.90
31967;DHT22;18496;52.042;6.812;2022-11-18T12:17:21;12.70;99.90
31967;DHT22;18496;52.042;6.812;2022-11-18T12:19:26;12.80;99.90
31967;DHT22;18496;52.042;6.812;2022-11-18T12:26:42;12.70;99.90
31967;DHT22;18496;52.042;6.812;2022-11-18T12:28:48;12.60;99.90
31967;DHT22;18496;52.042;6.812;2022-11-18T12:33:20;12.60;99.90
31967;DHT22;18496;52.042;6.812;2022-11-18T12:35:26;12.60;99.90
31967;DHT22;18496;52.042;6.812;2022-11-18T12:39:45;12.60;99.90
31967;DHT22;18496;52.042;6.812;2022-11-18T12:41:59;12.60;99.90
31967;DHT22;18496;52.042;6.812;2022-11-18T12:44:23;12.70;99.90
31967;DHT22;18496;52.042;6.812;2022-11-18T12:48:40;12.70;99.90
31967;DHT22;18496;52.042;6.812;2022-11-18T12:50:50;12.70;99.90
31967;DHT22;18496;52.042;6.812;2022-11-18T12:52:54;12.70;99.90
31967;DHT22;18496;52.042;6.812;2022-11-18T12:55:00;12.70;99.90
31967;DHT22;18496;52.042;6.812;2022-11-18T12:57:20;12.80;99.90
31967;DHT22;18496;52.042;6.812;2022-11-18T12:59:43;12.80;99.90
31967;DHT22;18496;52.042;6.812;2022-11-18T13:01:46;12.80;99.90
31967;DHT22;18496;52.042;6.812;2022-11-18T13:03:51;12.80;99.90
31967;DHT22;18496;52.042;6.812;2022-11-18T13:06:00;12.80;99.90
31967;DHT22;18496;52.042;6.812;2022-11-18T13:08:12;12.80;99.90
31967;DHT22;18496;52.042;6.812;2022-11-18T13:10:21;12.80;99.90
31967;DHT22;18496;52.042;6.812;2022-11-18T13:12:28;12.80;99.90
31967;DHT22;18496;52.042;6.812;2022-11-18T13:14:34;12.80;99.90
31967;DHT22;18496;52.042;6.812;2022-11-18T13:16:57;12.80;99.90
31967;DHT22;18496;52.042;6.812;2022-11-18T13:19:21;12.90;99.90
31967;DHT22;18496;52.042;6.812;2022-11-18T13:21:27;12.80;99.90
31967;DHT22;18496;52.042;6.812;2022-11-18T13:23:59;12.80;99.90
31967;DHT22;18496;52.042;6.812;2022-11-18T13:26:31;12.80;99.90
31967;DHT22;18496;52.042;6.812;2022-11-18T13:33:45;12.90;99.90
31967;DHT22;18496;52.042;6.812;2022-11-18T13:35:49;12.80;99.90
31967;DHT22;18496;52.042;6.812;2022-11-18T13:37:55;12.80;99.90
31967;DHT22;18496;52.042;6.812;2022-11-18T13:40:00;12.80;99.90
31967;DHT22;18496;52.042;6.812;2022-11-18T13:42:06;12.80;99.90
31967;DHT22;18496;52.042;6.812;2022-11-18T13:46:23;12.80;99.90
31967;DHT22;18496;52.042;6.812;2022-11-18T13:48:26;12.80;99.90
31967;DHT22;18496;52.042;6.812;2022-11-18T13:50:38;12.80;99.90
31967;DHT22;18496;52.042;6.812;2022-11-18T13:55:27;12.80;99.90
31967;DHT22;18496;52.042;6.812;2022-11-18T13:57:33;12.80;99.90
31967;DHT22;18496;52.042;6.812;2022-11-18T13:59:40;12.80;99.90
31967;DHT22;18496;52.042;6.812;2022-11-18T14:01:45;12.80;99.90
31967;DHT22;18496;52.042;6.812;2022-11-18T14:05:58;12.80;99.90
31967;DHT22;18496;52.042;6.812;2022-11-18T14:08:06;12.80;99.90
31967;DHT22;18496;52.042;6.812;2022-11-18T14:10:38;12.80;99.90
31967;DHT22;18496;52.042;6.812;2022-11-18T14:12:43;12.70;99.90
31967;DHT22;18496;52.042;6.812;2022-11-18T14:14:46;12.60;99.90
31967;DHT22;18496;52.042;6.812;2022-11-18T14:16:50;12.50;99.90
31967;DHT22;18496;52.042;6.812;2022-11-18T14:18:54;12.50;99.90
31967;DHT22;18496;52.042;6.812;2022-11-18T14:20:59;12.60;99.90
31967;DHT22;18496;52.042;6.812;2022-11-18T14:23:03;12.60;99.90
31967;DHT22;18496;52.042;6.812;2022-11-18T14:25:30;12.60;99.90
31967;DHT22;18496;52.042;6.812;2022-11-18T14:29:48;12.50;99.90
31967;DHT22;18496;52.042;6.812;2022-11-18T14:32:21;12.50;99.90
31967;DHT22;18496;52.042;6.812;2022-11-18T14:34:26;12.50;99.90
31967;DHT22;18496;52.042;6.812;2022-11-18T14:36:29;12.40;99.90
31967;DHT22;18496;52.042;6.812;2022-11-18T14:40:46;12.40;99.90
31967;DHT22;18496;52.042;6.812;2022-11-18T14:42:49;12.40;99.90
31967;DHT22;18496;52.042;6.812;2022-11-18T14:44:53;12.40;99.90
31967;DHT22;18496;52.042;6.812;2022-11-18T14:46:57;12.40;99.90
31967;DHT22;18496;52.042;6.812;2022-11-18T14:49:02;12.30;99.90
31967;DHT22;18496;52.042;6.812;2022-11-18T14:51:11;12.30;99.90
31967;DHT22;18496;52.042;6.812;2022-11-18T14:53:14;12.30;99.90
31967;DHT22;18496;52.042;6.812;2022-11-18T14:55:18;12.30;99.90
31967;DHT22;18496;52.042;6.812;2022-11-18T14:57:22;12.20;99.90
31967;DHT22;18496;52.042;6.812;2022-11-18T14:59:26;12.30;99.90
31967;DHT22;18496;52.042;6.812;2022-11-18T15:01:30;12.20;99.90
31967;DHT22;18496;52.042;6.812;2022-11-18T15:03:33;12.20;99.90
31967;DHT22;18496;52.042;6.812;2022-11-18T15:05:37;12.20;99.90
31967;DHT22;18496;52.042;6.812;2022-11-18T15:07:41;12.10;99.90
31967;DHT22;18496;52.042;6.812;2022-11-18T15:09:45;12.00;99.90
31967;DHT22;18496;52.042;6.812;2022-11-18T15:11:48;12.00;99.90
31967;DHT22;18496;52.042;6.812;2022-11-18T15:13:52;12.00;99.90